createdAt,value
2019-04-22T00:02:00.518Z,16.20
2019-04-22T00:04:42.167Z,16.10
2019-04-22T00:07:22.740Z,16.00
2019-04-22T00:09:59.471Z,16.00
2019-04-22T00:12:27.588Z,16.10
2019-04-22T00:14:52.487Z,16.10
2019-04-22T00:17:38.703Z,16.10
2019-04-22T00:20:06.122Z,16.00
2019-04-22T00:22:35.136Z,15.90
2019-04-22T00:25:10.466Z,15.80
2019-04-22T00:27:40.724Z,15.80
2019-04-22T00:30:15.504Z,15.70
2019-04-22T00:32:50.009Z,15.70
2019-04-22T00:35:18.173Z,15.70
2019-04-22T00:37:56.996Z,15.60
2019-04-22T00:40:28.181Z,15.50
2019-04-22T00:45:36.795Z,15.40
2019-04-22T00:48:00.888Z,15.40
2019-04-22T00:50:37.463Z,15.30
2019-04-22T00:53:11.950Z,15.30
2019-04-22T00:55:38.095Z,15.30
2019-04-22T00:58:14.201Z,15.20
2019-04-22T01:00:44.412Z,15.30
2019-04-22T01:03:21.478Z,15.30
2019-04-22T01:05:46.855Z,15.30
2019-04-22T01:08:26.696Z,15.40
2019-04-22T01:10:57.019Z,15.40
2019-04-22T01:13:24.760Z,15.40
2019-04-22T01:16:03.195Z,15.30
2019-04-22T01:18:25.081Z,15.10
2019-04-22T01:23:28.192Z,14.80
2019-04-22T01:25:57.058Z,14.80
2019-04-22T01:28:23.915Z,14.80
2019-04-22T01:30:51.439Z,14.70
2019-04-22T01:33:23.261Z,14.70
2019-04-22T01:36:02.728Z,14.70
2019-04-22T01:38:36.692Z,14.80
2019-04-22T01:41:16.475Z,14.70
2019-04-22T01:43:51.830Z,14.70
2019-04-22T01:46:16.614Z,14.70
2019-04-22T01:48:57.789Z,14.50
2019-04-22T01:51:28.264Z,14.40
2019-04-22T01:53:58.519Z,14.40
2019-04-22T01:56:28.616Z,14.30
2019-04-22T01:58:50.329Z,14.30
2019-04-22T02:01:30.362Z,14.30
2019-04-22T02:04:02.717Z,14.30
2019-04-22T02:06:37.589Z,14.30
2019-04-22T02:09:10.655Z,14.30
2019-04-22T02:11:39.122Z,14.30
2019-04-22T02:14:09.209Z,14.30
2019-04-22T02:19:11.243Z,14.20
2019-04-22T02:21:35.768Z,14.20
2019-04-22T02:24:15.954Z,14.20
2019-04-22T02:26:41.699Z,14.20
2019-04-22T02:29:17.186Z,14.20
2019-04-22T02:31:55.874Z,14.30
2019-04-22T02:34:24.062Z,14.20
2019-04-22T02:36:54.336Z,14.30
2019-04-22T02:41:58.596Z,14.20
2019-04-22T02:44:28.782Z,14.00
2019-04-22T02:49:29.197Z,13.90
2019-04-22T02:52:06.406Z,13.90
2019-04-22T02:57:18.805Z,13.80
2019-04-22T02:59:43.283Z,13.80
2019-04-22T03:02:14.584Z,13.70
2019-04-22T03:04:37.409Z,13.70
2019-04-22T03:07:03.336Z,13.70
2019-04-22T03:09:38.350Z,13.70
2019-04-22T03:12:22.002Z,13.70
2019-04-22T03:17:25.540Z,13.70
2019-04-22T03:19:58.767Z,13.60
2019-04-22T03:27:37.109Z,13.30
2019-04-22T03:30:45.582Z,13.20
2019-04-22T03:37:50.358Z,12.90
2019-04-22T03:42:55.745Z,13.00
2019-04-22T03:48:01.912Z,13.00
2019-04-22T03:50:25.367Z,13.00
2019-04-22T03:53:05.924Z,12.90
2019-04-22T03:57:57.193Z,12.90
2019-04-22T04:08:15.129Z,12.70
2019-04-22T04:10:40.016Z,12.70
2019-04-22T04:13:21.103Z,12.70
2019-04-22T04:15:36.459Z,12.70
2019-04-22T04:18:13.303Z,12.60
2019-04-22T04:26:32.466Z,12.60
2019-04-22T04:31:02.008Z,12.70
2019-04-22T04:33:35.972Z,12.80
2019-04-22T04:36:14.624Z,12.60
2019-04-22T04:38:34.080Z,12.60
2019-04-22T04:41:06.278Z,12.50
2019-04-22T04:43:42.069Z,12.50
2019-04-22T04:46:09.388Z,12.60
2019-04-22T04:51:15.962Z,12.60
2019-04-22T04:53:53.096Z,12.70
2019-04-22T04:56:27.914Z,12.70
2019-04-22T04:58:55.841Z,12.70
2019-04-22T05:01:35.432Z,12.80
2019-04-22T05:03:59.401Z,12.70
2019-04-22T05:06:24.261Z,12.80
2019-04-22T05:11:24.946Z,12.90
2019-04-22T05:18:59.207Z,13.10
2019-04-22T05:21:33.079Z,13.30
2019-04-22T05:24:00.932Z,13.30
2019-04-22T05:26:30.997Z,13.60
2019-04-22T05:29:02.640Z,13.70
2019-04-22T05:31:32.614Z,13.80
2019-04-22T05:33:56.368Z,14.00
2019-04-22T05:36:30.017Z,14.20
2019-04-22T05:39:00.186Z,14.30
2019-04-22T05:41:36.452Z,14.40
2019-04-22T05:44:02.789Z,14.60
2019-04-22T05:46:34.777Z,14.80
2019-04-22T05:49:07.070Z,14.90
2019-04-22T05:51:42.017Z,15.20
2019-04-22T05:59:10.387Z,15.60
2019-04-22T06:01:51.775Z,15.50
2019-04-22T06:04:16.790Z,15.50
2019-04-22T06:06:51.624Z,15.50
2019-04-22T06:11:48.244Z,15.70
2019-04-22T06:14:20.397Z,15.70
2019-04-22T06:17:01.802Z,15.70
2019-04-22T06:19:24.499Z,15.50
2019-04-22T06:21:58.025Z,15.50
2019-04-22T06:24:50.720Z,15.50
2019-04-22T06:27:08.302Z,15.50
2019-04-22T06:29:30.135Z,15.50
2019-04-22T06:32:26.536Z,15.60
2019-04-22T06:37:13.034Z,15.70
2019-04-22T06:39:40.208Z,15.80
2019-04-22T06:42:13.418Z,15.90
2019-04-22T06:44:45.732Z,16.00
2019-04-22T06:47:28.674Z,16.10
2019-04-22T06:49:52.569Z,16.20
2019-04-22T06:52:17.740Z,16.30
2019-04-22T06:54:54.530Z,16.50
2019-04-22T06:57:19.465Z,16.60
2019-04-22T07:00:14.260Z,16.70
2019-04-22T07:02:33.809Z,16.80
2019-04-22T07:04:59.586Z,16.80
2019-04-22T07:07:25.182Z,16.90
2019-04-22T07:10:11.517Z,16.90
2019-04-22T07:12:30.474Z,17.00
2019-04-22T07:15:01.696Z,17.10
2019-04-22T07:17:39.431Z,17.20
2019-04-22T07:20:04.169Z,17.30
2019-04-22T07:22:38.919Z,17.30
2019-04-22T07:25:06.176Z,17.40
2019-04-22T07:27:44.127Z,17.40
2019-04-22T07:30:17.364Z,17.60
2019-04-22T07:33:04.819Z,17.70
2019-04-22T07:35:25.212Z,17.80
2019-04-22T07:37:47.093Z,18.00
2019-04-22T07:40:17.096Z,18.10
2019-04-22T07:42:52.098Z,18.20
2019-04-22T07:45:25.501Z,18.30
2019-04-22T07:50:37.427Z,18.40
2019-04-22T07:52:51.375Z,18.40
2019-04-22T07:55:27.241Z,18.40
2019-04-22T07:57:59.401Z,18.60
2019-04-22T08:00:34.087Z,18.70
2019-04-22T08:05:44.327Z,18.90
2019-04-22T08:08:13.050Z,19.00
2019-04-22T08:13:22.973Z,18.90
2019-04-22T08:18:17.490Z,18.80
2019-04-22T08:20:56.612Z,19.10
2019-04-22T08:23:23.754Z,19.20
2019-04-22T08:25:55.445Z,19.30
2019-04-22T08:28:31.747Z,19.40
2019-04-22T08:31:01.907Z,19.50
2019-04-22T08:33:38.191Z,19.70
2019-04-22T08:36:11.946Z,19.80
2019-04-22T08:38:46.955Z,19.90
2019-04-22T08:41:17.892Z,19.90
2019-04-22T08:43:55.865Z,20.00
2019-04-22T08:46:25.243Z,20.20
2019-04-22T08:48:52.985Z,20.20
2019-04-22T08:56:33.731Z,20.60
2019-04-22T08:59:07.061Z,20.80
2019-04-22T09:01:29.618Z,21.00
2019-04-22T09:04:00.605Z,21.00
2019-04-22T09:06:39.988Z,21.10
2019-04-22T09:09:02.083Z,21.20
2019-04-22T09:11:41.788Z,21.30
2019-04-22T09:16:37.365Z,21.50
2019-04-22T09:19:10.756Z,21.60
2019-04-22T09:21:43.346Z,21.60
2019-04-22T09:24:10.702Z,21.60
2019-04-22T09:26:44.502Z,21.80
2019-04-22T09:29:23.577Z,21.90
2019-04-22T09:31:49.769Z,21.90
2019-04-22T09:34:18.574Z,21.90
2019-04-22T09:36:50.265Z,22.10
2019-04-22T09:39:28.274Z,22.20
2019-04-22T09:41:52.111Z,22.20
2019-04-22T09:44:28.151Z,22.40
2019-04-22T09:46:51.999Z,22.40
2019-04-22T09:49:26.715Z,22.50
2019-04-22T09:52:01.473Z,22.70
2019-04-22T09:54:38.714Z,22.70
2019-04-22T09:57:01.584Z,22.70
2019-04-22T09:59:36.786Z,22.80
2019-04-22T10:02:19.728Z,22.80
2019-04-22T10:04:39.505Z,22.80
2019-04-22T10:07:13.068Z,22.80
2019-04-22T10:12:12.236Z,22.90
2019-04-22T10:14:45.121Z,23.00
2019-04-22T10:17:15.607Z,23.00
2019-04-22T10:19:41.062Z,22.90
2019-04-22T10:22:20.010Z,23.00
2019-04-22T10:24:45.388Z,23.10
2019-04-22T10:27:24.343Z,23.20
2019-04-22T10:29:54.174Z,23.20
2019-04-22T10:32:20.636Z,23.20
2019-04-22T10:34:38.772Z,23.20
2019-04-22T10:37:05.697Z,23.20
2019-04-22T10:39:43.861Z,23.30
2019-04-22T10:42:07.167Z,23.20
2019-04-22T10:44:37.375Z,23.20
2019-04-22T10:47:07.207Z,23.30
2019-04-22T10:49:38.236Z,23.30
2019-04-22T10:52:08.739Z,23.30
2019-04-22T10:54:38.647Z,23.30
2019-04-22T10:57:08.658Z,23.30
2019-04-22T10:59:38.561Z,23.30
2019-04-22T11:02:09.697Z,23.30
2019-04-22T11:04:40.436Z,23.30
2019-04-22T11:07:12.772Z,23.40
2019-04-22T11:09:51.689Z,23.40
2019-04-22T11:12:17.646Z,23.50
2019-04-22T11:14:45.515Z,23.50
2019-04-22T11:17:17.729Z,23.40
2019-04-22T11:19:47.945Z,23.30
2019-04-22T11:22:23.921Z,23.40
2019-04-22T11:24:50.692Z,23.50
2019-04-22T11:27:21.181Z,23.50
2019-04-22T11:29:50.907Z,23.50
2019-04-22T11:32:20.739Z,23.40
2019-04-22T11:34:51.213Z,23.50
2019-04-22T11:37:21.045Z,23.60
2019-04-22T11:40:04.875Z,23.70
2019-04-22T11:42:23.863Z,23.50
2019-04-22T11:44:55.127Z,23.50
2019-04-22T11:47:25.551Z,23.60
2019-04-22T11:49:55.556Z,23.70
2019-04-22T11:52:26.770Z,23.70
2019-04-22T11:54:57.008Z,23.70
2019-04-22T11:57:26.754Z,23.70
2019-04-22T11:59:56.619Z,23.70
2019-04-22T12:02:29.187Z,23.70
2019-04-22T12:04:58.972Z,23.80
2019-04-22T12:07:31.723Z,23.80
2019-04-22T12:10:13.271Z,24.00
2019-04-22T12:12:32.077Z,23.90
2019-04-22T12:15:02.039Z,24.00
2019-04-22T12:17:32.091Z,24.10
2019-04-22T12:20:05.063Z,24.00
2019-04-22T12:22:33.908Z,24.10
2019-04-22T12:25:10.565Z,24.10
2019-04-22T12:27:41.267Z,24.10
2019-04-22T12:30:19.584Z,24.20
2019-04-22T12:32:52.696Z,24.10
2019-04-22T12:35:24.203Z,24.10
2019-04-22T12:37:59.760Z,24.10
2019-04-22T12:40:37.268Z,24.20
2019-04-22T12:42:59.796Z,24.40
2019-04-22T12:45:30.117Z,24.50
2019-04-22T12:48:00.124Z,24.50
2019-04-22T12:50:34.907Z,24.60
2019-04-22T12:53:08.439Z,24.60
2019-04-22T12:55:34.361Z,24.70
2019-04-22T12:58:05.426Z,24.80
2019-04-22T13:00:36.324Z,24.90
2019-04-22T13:03:07.299Z,25.10
2019-04-22T13:05:37.572Z,25.10
2019-04-22T13:08:07.805Z,25.00
2019-04-22T13:10:45.772Z,24.70
2019-04-22T13:13:11.163Z,24.60
2019-04-22T13:15:41.370Z,24.60
2019-04-22T13:18:20.783Z,24.80
2019-04-22T13:20:44.299Z,24.90
2019-04-22T13:23:15.691Z,24.90
2019-04-22T13:25:47.143Z,25.10
2019-04-22T13:28:18.903Z,25.20
2019-04-22T13:30:50.917Z,25.30
2019-04-22T13:33:21.010Z,25.40
2019-04-22T13:35:52.131Z,25.40
2019-04-22T13:38:22.783Z,25.30
2019-04-22T13:41:12.496Z,25.20
2019-04-22T13:43:24.991Z,25.30
2019-04-22T13:45:56.050Z,25.50
2019-04-22T13:48:47.042Z,25.70
2019-04-22T13:54:29.997Z,25.60
2019-04-22T13:56:19.068Z,25.80
2019-04-22T13:58:45.874Z,25.80
2019-04-22T14:01:14.675Z,25.70
2019-04-22T14:04:04.816Z,25.80
2019-04-22T14:06:34.797Z,26.10
2019-04-22T14:09:07.467Z,25.90
2019-04-22T14:11:46.143Z,25.70
2019-04-22T14:14:09.225Z,25.80
2019-04-22T14:16:40.632Z,25.90
2019-04-22T14:19:11.907Z,25.90
2019-04-22T14:21:44.257Z,25.80
2019-04-22T14:24:14.336Z,26.00
2019-04-22T14:27:01.361Z,26.20
2019-04-22T14:29:17.500Z,26.30
2019-04-22T14:31:59.250Z,26.30
2019-04-22T14:34:20.901Z,26.00
2019-04-22T14:36:51.097Z,26.10
2019-04-22T14:39:21.987Z,26.40
2019-04-22T14:42:08.450Z,26.40
2019-04-22T14:45:16.906Z,26.30
2019-04-22T14:47:19.885Z,26.30
2019-04-22T14:49:48.188Z,26.30
2019-04-22T14:52:22.693Z,26.20
2019-04-22T14:54:41.292Z,26.20
2019-04-22T14:57:01.339Z,26.30
2019-04-22T14:59:32.566Z,26.40
2019-04-22T15:02:03.539Z,26.30
2019-04-22T15:04:33.440Z,26.20
2019-04-22T15:07:03.206Z,26.40
2019-04-22T15:09:34.187Z,26.20
2019-04-22T15:12:15.135Z,26.10
2019-04-22T15:14:35.647Z,25.90
2019-04-22T15:17:11.194Z,25.70
2019-04-22T15:19:43.799Z,25.50
2019-04-22T15:22:14.569Z,25.20
2019-04-22T15:24:45.024Z,25.00
2019-04-22T15:27:16.280Z,24.90
2019-04-22T15:29:47.250Z,24.80
2019-04-22T15:32:17.610Z,24.70
2019-04-22T15:34:48.879Z,24.60
2019-04-22T15:37:20.338Z,24.50
2019-04-22T15:39:50.176Z,24.50
2019-04-22T15:42:27.763Z,24.50
2019-04-22T15:44:51.721Z,24.50
2019-04-22T15:47:22.863Z,24.50
2019-04-22T15:49:53.969Z,24.50
2019-04-22T15:52:31.966Z,24.40
2019-04-22T15:54:56.363Z,24.30
2019-04-22T15:57:26.669Z,24.30
2019-04-22T16:00:13.131Z,24.20
2019-04-22T16:02:28.012Z,24.20
2019-04-22T16:04:58.857Z,24.10
2019-04-22T16:07:29.773Z,24.10
2019-04-22T16:09:59.825Z,24.10
2019-04-22T16:12:38.699Z,24.00
2019-04-22T16:15:03.188Z,24.00
2019-04-22T16:17:32.833Z,24.00
2019-04-22T16:20:03.690Z,23.90
2019-04-22T16:22:35.109Z,23.90
2019-04-22T16:25:25.015Z,23.90
2019-04-22T16:27:56.346Z,23.80
2019-04-22T16:30:27.688Z,23.70
2019-04-22T16:33:03.467Z,23.80
2019-04-22T16:35:34.954Z,23.70
2019-04-22T16:38:06.650Z,23.70
2019-04-22T16:40:36.808Z,23.70
2019-04-22T16:43:09.277Z,23.70
2019-04-22T16:45:38.161Z,23.70
2019-04-22T16:48:09.274Z,23.60
2019-04-22T16:50:42.841Z,23.50
2019-04-22T16:53:10.648Z,23.50
2019-04-22T16:55:41.044Z,23.50
2019-04-22T16:58:12.716Z,23.50
2019-04-22T17:00:43.128Z,23.50
2019-04-22T17:03:24.888Z,23.50
2019-04-22T17:06:09.830Z,23.40
2019-04-22T17:08:39.953Z,23.40
2019-04-22T17:11:09.953Z,23.30
2019-04-22T17:13:41.885Z,23.30
2019-04-22T17:16:11.948Z,23.30
2019-04-22T17:18:43.423Z,23.20
2019-04-22T17:21:14.662Z,23.10
2019-04-22T17:23:45.718Z,23.10
2019-04-22T17:26:16.741Z,23.10
2019-04-22T17:28:46.752Z,23.00
2019-04-22T17:31:16.596Z,22.90
2019-04-22T17:33:46.756Z,22.90
2019-04-22T17:36:18.206Z,22.80
2019-04-22T17:38:55.025Z,22.70
2019-04-22T17:41:30.262Z,22.60
2019-04-22T17:44:18.960Z,22.60
2019-04-22T17:46:40.270Z,22.50
2019-04-22T17:49:27.942Z,22.50
2019-04-22T17:52:10.802Z,22.40
2019-04-22T17:54:46.851Z,22.30
2019-04-22T17:57:09.972Z,22.30
2019-04-22T17:59:44.668Z,22.20
2019-04-22T18:02:16.741Z,22.20
2019-04-22T18:04:33.731Z,22.10
2019-04-22T18:07:24.834Z,22.00
2019-04-22T18:10:16.473Z,21.90
2019-04-22T18:12:34.017Z,21.90
2019-04-22T18:15:00.984Z,21.80
2019-04-22T18:17:30.572Z,21.80
2019-04-22T18:19:54.581Z,21.70
2019-04-22T18:22:21.842Z,21.70
2019-04-22T18:24:55.973Z,21.60
2019-04-22T18:30:00.017Z,21.50
2019-04-22T18:32:35.821Z,21.40
2019-04-22T18:35:07.257Z,21.30
2019-04-22T18:37:41.364Z,21.20
2019-04-22T18:40:11.705Z,21.20
2019-04-22T18:42:46.342Z,21.10
2019-04-22T18:45:29.674Z,21.10
2019-04-22T18:47:38.945Z,21.00
2019-04-22T18:50:22.015Z,21.00
2019-04-22T18:53:10.932Z,20.90
2019-04-22T18:55:35.205Z,20.90
2019-04-22T18:58:08.496Z,20.80
2019-04-22T19:00:41.844Z,20.70
2019-04-22T19:03:19.608Z,20.70
2019-04-22T19:06:11.791Z,20.60
2019-04-22T19:08:36.414Z,20.60
2019-04-22T19:11:20.980Z,20.50
2019-04-22T19:13:56.139Z,20.40
2019-04-22T19:16:25.784Z,20.40
2019-04-22T19:18:50.203Z,20.40
2019-04-22T19:21:14.955Z,20.30
2019-04-22T19:23:50.570Z,20.20
2019-04-22T19:26:32.421Z,20.20
2019-04-22T19:28:49.778Z,20.20
2019-04-22T19:31:24.664Z,20.10
2019-04-22T19:33:53.697Z,20.10
2019-04-22T19:36:26.116Z,20.00
2019-04-22T19:38:52.579Z,19.90
2019-04-22T19:41:29.214Z,19.90
2019-04-22T19:44:05.498Z,19.80
2019-04-22T19:46:28.679Z,19.80
2019-04-22T19:49:06.997Z,19.70
2019-04-22T19:51:57.295Z,19.70
2019-04-22T19:54:01.503Z,19.60
2019-04-22T19:56:28.231Z,19.60
2019-04-22T19:59:08.767Z,19.50
2019-04-22T20:01:54.179Z,19.50
2019-04-22T20:04:41.699Z,19.40
2019-04-22T20:07:08.399Z,19.30
2019-04-22T20:09:46.690Z,19.30
2019-04-22T20:12:15.140Z,19.20
2019-04-22T20:14:46.375Z,19.20
2019-04-22T20:17:19.834Z,19.20
2019-04-22T20:22:17.680Z,19.10
2019-04-22T20:24:44.792Z,19.00
2019-04-22T20:27:28.545Z,19.00
2019-04-22T20:30:13.218Z,19.00
2019-04-22T20:32:27.881Z,18.90
2019-04-22T20:35:02.972Z,18.90
2019-04-22T20:37:35.475Z,18.90
2019-04-22T20:40:00.502Z,18.80
2019-04-22T20:45:03.980Z,18.70
2019-04-22T20:47:30.633Z,18.70
2019-04-22T20:50:05.277Z,18.70
2019-04-22T20:52:50.519Z,18.60
2019-04-22T20:55:07.777Z,18.50
2019-04-22T20:57:48.450Z,18.50
2019-04-22T21:00:11.659Z,18.50
2019-04-22T21:02:37.640Z,18.40
2019-04-22T21:05:03.258Z,18.50
2019-04-22T21:07:52.967Z,18.40
2019-04-22T21:10:15.854Z,18.40
2019-04-22T21:12:39.995Z,18.40
2019-04-22T21:15:26.251Z,18.30
2019-04-22T21:17:53.793Z,18.30
2019-04-22T21:20:31.803Z,18.30
2019-04-22T21:22:56.259Z,18.20
2019-04-22T21:25:24.005Z,18.20
2019-04-22T21:28:04.862Z,18.10
2019-04-22T21:30:32.027Z,18.10
2019-04-22T21:32:58.238Z,18.00
2019-04-22T21:38:08.759Z,18.00
2019-04-22T21:40:39.498Z,17.90
2019-04-22T21:43:13.644Z,18.00
2019-04-22T21:45:37.628Z,17.90
2019-04-22T21:53:25.145Z,17.70
2019-04-22T21:56:03.957Z,17.70
2019-04-22T21:58:49.433Z,17.60
2019-04-22T22:01:29.137Z,17.50
2019-04-22T22:03:55.153Z,17.40
2019-04-22T22:06:16.617Z,17.30
2019-04-22T22:08:56.866Z,17.40
2019-04-22T22:11:26.054Z,17.30
2019-04-22T22:13:58.766Z,17.20
2019-04-22T22:16:23.352Z,17.20
2019-04-22T22:19:04.292Z,17.20
2019-04-22T22:21:43.901Z,17.20
2019-04-22T22:24:10.080Z,17.10
2019-04-22T22:26:40.702Z,17.00
2019-04-22T22:29:09.767Z,17.00
2019-04-22T22:31:40.243Z,17.00
2019-04-22T22:34:13.623Z,16.90
2019-04-22T22:36:36.868Z,16.90
2019-04-22T22:39:07.629Z,16.80
2019-04-22T22:41:23.972Z,16.80
2019-04-22T22:44:03.239Z,16.70
2019-04-22T22:46:34.173Z,16.60
2019-04-22T22:49:22.895Z,16.60
2019-04-22T22:52:11.691Z,16.60
2019-04-22T22:54:26.948Z,16.60
2019-04-22T22:59:30.006Z,16.50
2019-04-22T23:01:54.395Z,16.40
2019-04-22T23:04:37.273Z,16.30
2019-04-22T23:07:09.340Z,16.20
2019-04-22T23:09:30.712Z,16.10
2019-04-22T23:14:31.126Z,16.00
2019-04-22T23:16:52.875Z,15.90
2019-04-22T23:19:15.886Z,15.90
2019-04-22T23:21:49.470Z,15.90
2019-04-22T23:24:58.155Z,15.90
2019-04-22T23:27:34.591Z,15.90
2019-04-22T23:30:08.892Z,15.80
2019-04-22T23:32:42.651Z,15.70
2019-04-22T23:35:29.299Z,15.80
2019-04-22T23:37:59.613Z,15.70
2019-04-22T23:40:34.384Z,15.70
2019-04-22T23:43:09.421Z,15.70
2019-04-22T23:45:43.325Z,15.60
2019-04-22T23:48:05.841Z,15.50
2019-04-22T23:50:37.764Z,15.50
2019-04-22T23:53:31.626Z,15.40
2019-04-22T23:55:51.203Z,15.40
2019-04-22T23:58:34.950Z,15.40
